createdAt,value
2022-12-15T00:04:59.631Z,99998.81
2022-12-15T00:10:19.801Z,99991.13
2022-12-15T00:15:39.966Z,99981.09
2022-12-15T00:21:01.544Z,99977.84
2022-12-15T00:26:22.337Z,99977.34
2022-12-15T00:31:42.378Z,99980.03
2022-12-15T00:37:04.026Z,99984.72
2022-12-15T00:42:06.958Z,99998.94
2022-12-15T00:47:09.684Z,100001.28
2022-12-15T00:52:32.012Z,100014.63
2022-12-15T00:57:52.591Z,100023.63
2022-12-15T01:03:12.778Z,100009.56
2022-12-15T01:08:34.231Z,100024.16
2022-12-15T01:13:54.823Z,99990.78
2022-12-15T01:19:15.459Z,100011.94
2022-12-15T01:24:19.575Z,100012.09
2022-12-15T01:29:24.306Z,100016.59
2022-12-15T01:34:29.985Z,100027.53
2022-12-15T01:39:48.007Z,100023.78
2022-12-15T01:44:52.754Z,100015.28
2022-12-15T01:49:56.130Z,100009.88
2022-12-15T01:55:00.528Z,100013.97
2022-12-15T02:00:08.322Z,100028.53
2022-12-15T02:05:11.588Z,100028.88
2022-12-15T02:10:15.861Z,100024.94
2022-12-15T02:15:22.606Z,100036.41
2022-12-15T02:20:41.285Z,100036.03
2022-12-15T02:26:01.423Z,100033.69
2022-12-15T02:31:26.817Z,100049.44
2022-12-15T02:36:36.699Z,100058.25
2022-12-15T02:41:42.862Z,100053.09
2022-12-15T02:47:05.892Z,100053.47
2022-12-15T02:52:22.410Z,100042.53
2022-12-15T02:57:32.931Z,100040.56
2022-12-15T03:02:41.300Z,100041.59
2022-12-15T03:07:45.010Z,100032.97
2022-12-15T03:12:54.408Z,100043.53
2022-12-15T03:17:58.605Z,100038.72
2022-12-15T03:23:01.870Z,100053.06
2022-12-15T03:28:04.763Z,100047.50
2022-12-15T03:33:08.861Z,100045.00
2022-12-15T03:38:11.679Z,100049.16
2022-12-15T03:43:14.396Z,100041.88
2022-12-15T03:48:18.571Z,100044.78
2022-12-15T03:53:21.429Z,100052.13
2022-12-15T03:58:24.633Z,100045.16
2022-12-15T04:03:29.666Z,100043.09
2022-12-15T04:08:32.929Z,100059.50
2022-12-15T04:13:35.699Z,100058.28
2022-12-15T04:18:39.823Z,100061.88
2022-12-15T04:23:59.864Z,100053.59
2022-12-15T04:29:19.998Z,100076.94
2022-12-15T04:34:43.223Z,100070.31
2022-12-15T04:40:07.882Z,100070.41
2022-12-15T04:45:29.666Z,100075.13
2022-12-15T04:50:51.249Z,100088.59
2022-12-15T04:56:16.513Z,100080.13
2022-12-15T05:01:38.864Z,100089.81
2022-12-15T05:07:00.360Z,100102.06
2022-12-15T05:12:20.678Z,100094.91
2022-12-15T05:17:41.874Z,100103.16
2022-12-15T05:23:03.334Z,100089.53
2022-12-15T05:28:25.534Z,100088.09
2022-12-15T05:33:28.689Z,100097.28
2022-12-15T05:38:33.116Z,100101.59
2022-12-15T05:43:35.898Z,100103.06
2022-12-15T05:48:39.104Z,100115.44
2022-12-15T05:53:43.756Z,100114.00
2022-12-15T05:58:46.570Z,100112.97
2022-12-15T06:03:49.856Z,100124.69
2022-12-15T06:09:18.322Z,100137.34
2022-12-15T06:14:31.286Z,100139.16
2022-12-15T06:19:35.821Z,100156.81
2022-12-15T06:24:57.409Z,100149.25
2022-12-15T06:30:12.090Z,100148.47
2022-12-15T06:35:15.362Z,100148.69
2022-12-15T06:40:24.599Z,100160.00
2022-12-15T06:45:27.910Z,100164.75
2022-12-15T06:50:35.677Z,100162.78
2022-12-15T06:55:51.208Z,100172.31
2022-12-15T07:01:19.002Z,100178.06
2022-12-15T07:06:39.554Z,100193.91
2022-12-15T07:12:18.615Z,100186.94
2022-12-15T07:17:21.428Z,100208.13
2022-12-15T07:22:25.313Z,100205.47
2022-12-15T07:27:29.644Z,100213.63
2022-12-15T07:32:32.468Z,100229.09
2022-12-15T07:37:36.978Z,100230.56
2022-12-15T07:42:41.328Z,100246.81
2022-12-15T07:47:44.169Z,100250.22
2022-12-15T07:52:47.477Z,100257.19
2022-12-15T07:57:51.670Z,100262.03
2022-12-15T08:02:57.638Z,100254.44
2022-12-15T08:08:00.797Z,100267.44
2022-12-15T08:13:04.942Z,100269.91
2022-12-15T08:18:09.038Z,100278.75
2022-12-15T08:23:11.844Z,100275.41
2022-12-15T08:28:16.519Z,100296.72
2022-12-15T08:33:19.291Z,100301.22
2022-12-15T08:38:22.111Z,100299.63
2022-12-15T08:43:35.585Z,100307.06
2022-12-15T08:48:38.469Z,100303.94
2022-12-15T08:53:41.564Z,100302.34
2022-12-15T08:58:46.555Z,100298.53
2022-12-15T09:03:50.757Z,100288.97
2022-12-15T09:08:56.688Z,100293.88
2022-12-15T09:14:01.094Z,100299.03
2022-12-15T09:19:04.488Z,100301.16
2022-12-15T09:24:07.760Z,100304.41
2022-12-15T09:29:14.290Z,100308.94
2022-12-15T09:34:17.066Z,100320.69
2022-12-15T09:39:21.282Z,100309.78
2022-12-15T09:44:27.333Z,100314.97
2022-12-15T09:49:53.270Z,100315.03
2022-12-15T09:54:56.783Z,100323.66
2022-12-15T10:00:11.469Z,100321.22
2022-12-15T10:05:38.120Z,100324.72
2022-12-15T10:10:55.609Z,100301.22
2022-12-15T10:16:04.182Z,100309.56
2022-12-15T10:21:14.102Z,100313.28
2022-12-15T10:26:21.521Z,100313.19
2022-12-15T10:31:35.987Z,100307.94
2022-12-15T10:36:38.867Z,100311.13
2022-12-15T10:41:41.629Z,100308.38
2022-12-15T10:46:46.288Z,100294.28
2022-12-15T10:51:56.011Z,100307.44
2022-12-15T10:57:01.763Z,100305.19
2022-12-15T11:07:39.517Z,100302.69
2022-12-15T11:13:01.697Z,100295.47
2022-12-15T11:18:11.252Z,100299.44
2022-12-15T11:23:22.401Z,100294.94
2022-12-15T11:28:33.942Z,100300.47
2022-12-15T11:33:38.931Z,100294.53
2022-12-15T11:38:49.885Z,100304.41
2022-12-15T11:44:10.941Z,100306.41
2022-12-15T11:49:40.741Z,100318.28
2022-12-15T11:54:54.842Z,100322.06
2022-12-15T12:00:06.235Z,100324.00
2022-12-15T12:05:38.910Z,100320.59
2022-12-15T12:10:54.681Z,100323.47
2022-12-15T12:16:18.580Z,100325.38
2022-12-15T12:21:25.481Z,100322.50
2022-12-15T12:26:36.669Z,100317.56
2022-12-15T12:31:50.724Z,100325.41
2022-12-15T12:36:56.240Z,100324.19
2022-12-15T12:42:08.685Z,100329.97
2022-12-15T12:47:18.403Z,100327.41
2022-12-15T12:52:25.253Z,100322.78
2022-12-15T12:57:37.114Z,100320.69
2022-12-15T13:03:03.095Z,100310.78
2022-12-15T13:08:45.718Z,100318.91
2022-12-15T13:13:55.687Z,100326.22
2022-12-15T13:19:05.213Z,100321.59
2022-12-15T13:24:32.292Z,100325.78
2022-12-15T13:29:56.783Z,100323.09
2022-12-15T13:35:16.075Z,100321.00
2022-12-15T13:40:34.931Z,100324.56
2022-12-15T13:45:54.663Z,100328.47
2022-12-15T13:51:04.383Z,100332.22
2022-12-15T13:56:23.612Z,100327.00
2022-12-15T14:01:32.607Z,100334.78
2022-12-15T14:06:39.607Z,100339.00
2022-12-15T14:11:53.937Z,100333.75
2022-12-15T14:17:03.127Z,100337.34
2022-12-15T14:22:26.722Z,100334.97
2022-12-15T14:27:34.152Z,100326.56
2022-12-15T14:32:40.198Z,100337.28
2022-12-15T14:37:43.755Z,100330.53
2022-12-15T14:42:47.944Z,100340.72
2022-12-15T14:48:30.353Z,100342.78
2022-12-15T14:53:23.974Z,100341.81
2022-12-15T14:58:33.405Z,100349.75
2022-12-15T15:03:40.044Z,100339.88
2022-12-15T15:08:47.433Z,100345.41
2022-12-15T15:13:55.979Z,100346.75
2022-12-15T15:19:04.476Z,100354.38
2022-12-15T15:24:24.856Z,100363.78
2022-12-15T15:29:39.724Z,100360.41
2022-12-15T15:34:44.949Z,100372.28
2022-12-15T15:39:49.815Z,100370.53
2022-12-15T15:44:54.773Z,100368.06
2022-12-15T15:50:00.947Z,100370.81
2022-12-15T15:55:03.895Z,100374.13
2022-12-15T16:00:21.404Z,100383.88
2022-12-15T16:05:26.897Z,100373.78
2022-12-15T16:10:30.262Z,100370.50
2022-12-15T16:15:33.267Z,100361.34
2022-12-15T16:20:38.465Z,100350.91
2022-12-15T16:25:50.316Z,100345.44
2022-12-15T16:30:54.127Z,100362.53
2022-12-15T16:35:58.975Z,100369.66
2022-12-15T16:41:08.123Z,100372.91
2022-12-15T16:46:12.635Z,100380.91
2022-12-15T16:51:28.133Z,100384.53
2022-12-15T16:56:31.098Z,100392.47
2022-12-15T17:01:39.698Z,100393.53
2022-12-15T17:06:45.482Z,100400.75
2022-12-15T17:11:52.114Z,100399.97
2022-12-15T17:16:54.940Z,100408.03
2022-12-15T17:21:59.134Z,100402.84
2022-12-15T17:27:06.582Z,100406.13
2022-12-15T17:32:13.546Z,100410.13
2022-12-15T17:37:18.068Z,100415.97
2022-12-15T17:42:22.497Z,100423.66
2022-12-15T17:47:25.487Z,100415.78
2022-12-15T17:52:34.335Z,100431.16
2022-12-15T17:57:37.309Z,100439.13
2022-12-15T18:02:40.297Z,100444.53
2022-12-15T18:07:45.029Z,100443.16
2022-12-15T18:12:47.917Z,100453.41
2022-12-15T18:17:51.250Z,100456.28
2022-12-15T18:22:55.481Z,100455.75
2022-12-15T18:27:59.308Z,100463.38
2022-12-15T18:33:02.186Z,100475.88
2022-12-15T18:38:15.316Z,100473.56
2022-12-15T18:43:19.725Z,100482.53
2022-12-15T18:48:24.583Z,100497.06
2022-12-15T18:53:31.397Z,100495.91
2022-12-15T18:58:36.576Z,100499.38
2022-12-15T19:03:41.022Z,100506.66
2022-12-15T19:08:45.313Z,100507.22
2022-12-15T19:13:48.137Z,100515.84
2022-12-15T19:19:11.296Z,100519.09
2022-12-15T19:24:45.157Z,100532.72
2022-12-15T19:29:48.536Z,100534.72
2022-12-15T19:34:51.407Z,100544.56
2022-12-15T19:39:57.856Z,100542.56
2022-12-15T19:45:01.425Z,100550.72
2022-12-15T19:50:04.629Z,100550.72
2022-12-15T19:55:15.090Z,100552.50
2022-12-15T20:00:21.739Z,100549.75
2022-12-15T20:05:25.832Z,100549.25
2022-12-15T20:10:32.486Z,100556.06
2022-12-15T20:15:35.462Z,100560.69
2022-12-15T20:20:39.165Z,100570.22
2022-12-15T20:25:44.056Z,100578.34
2022-12-15T20:30:47.543Z,100598.22
2022-12-15T20:35:51.367Z,100600.44
2022-12-15T20:40:56.496Z,100599.59
2022-12-15T20:46:04.023Z,100592.47
2022-12-15T20:51:09.778Z,100600.78
2022-12-15T20:56:14.729Z,100599.31
2022-12-15T21:01:23.465Z,100596.50
2022-12-15T21:06:27.476Z,100596.22
2022-12-15T21:11:34.056Z,100601.44
2022-12-15T21:16:36.921Z,100607.19
2022-12-15T21:21:43.045Z,100608.91
2022-12-15T21:26:47.688Z,100602.72
2022-12-15T21:31:51.065Z,100607.25
2022-12-15T21:36:55.093Z,100598.91
2022-12-15T21:42:02.640Z,100614.59
2022-12-15T21:47:22.120Z,100610.84
2022-12-15T21:52:28.333Z,100608.06
2022-12-15T21:57:32.494Z,100610.00
2022-12-15T22:02:35.277Z,100613.72
2022-12-15T22:07:38.152Z,100606.72
2022-12-15T22:12:44.961Z,100611.13
2022-12-15T22:17:48.085Z,100620.25
2022-12-15T22:22:51.667Z,100621.53
2022-12-15T22:27:55.859Z,100619.44
2022-12-15T22:32:58.743Z,100634.06
2022-12-15T22:38:01.799Z,100639.63
2022-12-15T22:43:15.586Z,100644.56
2022-12-15T22:48:20.363Z,100650.06
2022-12-15T22:53:23.971Z,100656.38
2022-12-15T22:58:33.417Z,100648.41
2022-12-15T23:03:36.620Z,100658.25
2022-12-15T23:08:39.477Z,100661.63
2022-12-15T23:13:43.797Z,100657.00
2022-12-15T23:18:46.984Z,100653.78
2022-12-15T23:23:50.134Z,100660.44
2022-12-15T23:28:55.459Z,100658.63
2022-12-15T23:33:58.359Z,100670.38
2022-12-15T23:39:01.254Z,100669.13
2022-12-15T23:44:07.705Z,100686.97
2022-12-15T23:49:11.159Z,100680.19
2022-12-15T23:54:14.172Z,100684.59
2022-12-15T23:59:18.593Z,100688.44
